sensor_id;sensor_type;location;lat;lon;timestamp;P1;durP1;ratioP1;P2;durP2;ratioP2
438;SDS011;206;48.782;9.252;2023-03-16T00:00:48;19.13;;;14.77;;
438;SDS011;206;48.782;9.252;2023-03-16T00:03:14;17.60;;;14.13;;
438;SDS011;206;48.782;9.252;2023-03-16T00:05:43;15.33;;;14.00;;
438;SDS011;206;48.782;9.252;2023-03-16T00:08:12;23.23;;;14.50;;
438;SDS011;206;48.782;9.252;2023-03-16T00:10:40;16.10;;;14.07;;
438;SDS011;206;48.782;9.252;2023-03-16T00:13:17;16.27;;;12.77;;
438;SDS011;206;48.782;9.252;2023-03-16T00:15:57;13.83;;;12.57;;
438;SDS011;206;48.782;9.252;2023-03-16T00:18:24;17.43;;;12.83;;
438;SDS011;206;48.782;9.252;2023-03-16T00:20:52;13.17;;;11.63;;
438;SDS011;206;48.782;9.252;2023-03-16T00:23:20;13.30;;;11.53;;
438;SDS011;206;48.782;9.252;2023-03-16T00:25:51;10.07;;;9.53;;
438;SDS011;206;48.782;9.252;2023-03-16T00:28:18;16.40;;;11.87;;
438;SDS011;206;48.782;9.252;2023-03-16T00:30:43;14.40;;;11.43;;
438;SDS011;206;48.782;9.252;2023-03-16T00:33:11;19.13;;;12.63;;
438;SDS011;206;48.782;9.252;2023-03-16T00:35:37;10.80;;;10.20;;
438;SDS011;206;48.782;9.252;2023-03-16T00:38:02;11.77;;;10.13;;
438;SDS011;206;48.782;9.252;2023-03-16T00:40:28;12.63;;;9.93;;
438;SDS011;206;48.782;9.252;2023-03-16T00:42:54;14.97;;;11.60;;
438;SDS011;206;48.782;9.252;2023-03-16T00:45:20;14.13;;;10.43;;
438;SDS011;206;48.782;9.252;2023-03-16T00:47:47;13.13;;;11.00;;
438;SDS011;206;48.782;9.252;2023-03-16T00:50:13;13.47;;;11.27;;
438;SDS011;206;48.782;9.252;2023-03-16T00:52:39;14.57;;;13.20;;
438;SDS011;206;48.782;9.252;2023-03-16T00:55:06;16.87;;;12.90;;
438;SDS011;206;48.782;9.252;2023-03-16T00:57:32;15.07;;;12.40;;
438;SDS011;206;48.782;9.252;2023-03-16T00:59:58;17.10;;;12.87;;
438;SDS011;206;48.782;9.252;2023-03-16T01:02:25;23.03;;;13.37;;
438;SDS011;206;48.782;9.252;2023-03-16T01:04:51;13.70;;;11.60;;
438;SDS011;206;48.782;9.252;2023-03-16T01:07:18;14.20;;;11.27;;
438;SDS011;206;48.782;9.252;2023-03-16T01:09:46;13.30;;;11.60;;
438;SDS011;206;48.782;9.252;2023-03-16T01:12:13;12.97;;;11.10;;
438;SDS011;206;48.782;9.252;2023-03-16T01:14:40;13.93;;;11.50;;
438;SDS011;206;48.782;9.252;2023-03-16T01:17:07;13.83;;;12.80;;
438;SDS011;206;48.782;9.252;2023-03-16T01:19:34;19.93;;;15.57;;
438;SDS011;206;48.782;9.252;2023-03-16T01:22:01;16.50;;;12.97;;
438;SDS011;206;48.782;9.252;2023-03-16T01:24:28;15.00;;;14.03;;
438;SDS011;206;48.782;9.252;2023-03-16T01:26:54;20.53;;;13.77;;
438;SDS011;206;48.782;9.252;2023-03-16T01:29:20;14.23;;;12.67;;
438;SDS011;206;48.782;9.252;2023-03-16T01:31:46;14.90;;;12.73;;
438;SDS011;206;48.782;9.252;2023-03-16T01:34:13;14.33;;;12.60;;
438;SDS011;206;48.782;9.252;2023-03-16T01:36:42;16.43;;;13.93;;
438;SDS011;206;48.782;9.252;2023-03-16T01:39:09;14.47;;;13.47;;
438;SDS011;206;48.782;9.252;2023-03-16T01:41:35;13.10;;;12.43;;
438;SDS011;206;48.782;9.252;2023-03-16T01:44:02;14.53;;;12.07;;
438;SDS011;206;48.782;9.252;2023-03-16T01:46:28;16.00;;;12.83;;
438;SDS011;206;48.782;9.252;2023-03-16T01:49:05;16.83;;;13.83;;
438;SDS011;206;48.782;9.252;2023-03-16T01:51:52;14.67;;;12.27;;
438;SDS011;206;48.782;9.252;2023-03-16T01:54:48;18.63;;;12.10;;
438;SDS011;206;48.782;9.252;2023-03-16T01:57:17;18.60;;;12.33;;
438;SDS011;206;48.782;9.252;2023-03-16T02:02:11;15.07;;;12.57;;
438;SDS011;206;48.782;9.252;2023-03-16T02:04:47;18.10;;;13.70;;
438;SDS011;206;48.782;9.252;2023-03-16T02:07:13;20.20;;;13.00;;
438;SDS011;206;48.782;9.252;2023-03-16T02:09:41;14.57;;;11.33;;
438;SDS011;206;48.782;9.252;2023-03-16T02:12:13;14.63;;;12.80;;
438;SDS011;206;48.782;9.252;2023-03-16T02:14:42;18.70;;;14.17;;
438;SDS011;206;48.782;9.252;2023-03-16T02:17:09;16.23;;;13.57;;
438;SDS011;206;48.782;9.252;2023-03-16T02:22:10;14.17;;;12.93;;
438;SDS011;206;48.782;9.252;2023-03-16T02:24:37;15.80;;;13.60;;
438;SDS011;206;48.782;9.252;2023-03-16T02:27:04;23.33;;;13.10;;
438;SDS011;206;48.782;9.252;2023-03-16T02:32:17;13.00;;;11.87;;
438;SDS011;206;48.782;9.252;2023-03-16T02:34:43;18.33;;;14.57;;
438;SDS011;206;48.782;9.252;2023-03-16T02:37:09;14.23;;;12.00;;
438;SDS011;206;48.782;9.252;2023-03-16T02:39:36;20.07;;;14.10;;
438;SDS011;206;48.782;9.252;2023-03-16T02:42:01;16.33;;;13.47;;
438;SDS011;206;48.782;9.252;2023-03-16T02:44:30;15.90;;;12.30;;
438;SDS011;206;48.782;9.252;2023-03-16T02:47:00;16.17;;;13.37;;
438;SDS011;206;48.782;9.252;2023-03-16T02:49:37;15.90;;;14.00;;
438;SDS011;206;48.782;9.252;2023-03-16T02:52:06;15.40;;;13.70;;
438;SDS011;206;48.782;9.252;2023-03-16T02:54:32;19.87;;;13.57;;
438;SDS011;206;48.782;9.252;2023-03-16T02:56:58;15.77;;;12.80;;
438;SDS011;206;48.782;9.252;2023-03-16T02:59:23;15.20;;;13.47;;
438;SDS011;206;48.782;9.252;2023-03-16T03:01:49;17.07;;;12.47;;
438;SDS011;206;48.782;9.252;2023-03-16T03:04:15;15.33;;;12.77;;
438;SDS011;206;48.782;9.252;2023-03-16T03:06:41;18.93;;;10.80;;
438;SDS011;206;48.782;9.252;2023-03-16T03:09:07;16.87;;;12.07;;
438;SDS011;206;48.782;9.252;2023-03-16T03:11:35;21.30;;;13.13;;
438;SDS011;206;48.782;9.252;2023-03-16T03:14:01;13.13;;;11.53;;
438;SDS011;206;48.782;9.252;2023-03-16T03:16:28;17.10;;;12.50;;
438;SDS011;206;48.782;9.252;2023-03-16T03:18:54;15.57;;;12.10;;
438;SDS011;206;48.782;9.252;2023-03-16T03:21:19;15.87;;;13.03;;
438;SDS011;206;48.782;9.252;2023-03-16T03:23:46;13.40;;;11.00;;
438;SDS011;206;48.782;9.252;2023-03-16T03:26:12;14.20;;;11.77;;
438;SDS011;206;48.782;9.252;2023-03-16T03:28:39;14.93;;;12.00;;
438;SDS011;206;48.782;9.252;2023-03-16T03:31:05;13.87;;;12.13;;
438;SDS011;206;48.782;9.252;2023-03-16T03:33:31;16.37;;;12.80;;
438;SDS011;206;48.782;9.252;2023-03-16T03:35:58;15.07;;;12.70;;
438;SDS011;206;48.782;9.252;2023-03-16T03:38:24;14.70;;;13.00;;
438;SDS011;206;48.782;9.252;2023-03-16T03:40:50;16.10;;;13.40;;
438;SDS011;206;48.782;9.252;2023-03-16T03:43:17;14.63;;;12.97;;
438;SDS011;206;48.782;9.252;2023-03-16T03:45:43;16.80;;;12.53;;
438;SDS011;206;48.782;9.252;2023-03-16T03:48:09;14.03;;;13.20;;
438;SDS011;206;48.782;9.252;2023-03-16T03:50:34;15.80;;;12.70;;
438;SDS011;206;48.782;9.252;2023-03-16T03:53:01;18.50;;;15.00;;
438;SDS011;206;48.782;9.252;2023-03-16T03:55:27;15.73;;;13.00;;
438;SDS011;206;48.782;9.252;2023-03-16T03:57:52;16.40;;;12.93;;
438;SDS011;206;48.782;9.252;2023-03-16T04:00:18;16.07;;;12.73;;
438;SDS011;206;48.782;9.252;2023-03-16T04:02:46;12.70;;;10.03;;
438;SDS011;206;48.782;9.252;2023-03-16T04:05:12;16.03;;;12.03;;
438;SDS011;206;48.782;9.252;2023-03-16T04:07:38;16.60;;;14.00;;
438;SDS011;206;48.782;9.252;2023-03-16T04:10:05;12.60;;;10.50;;
438;SDS011;206;48.782;9.252;2023-03-16T04:12:31;12.53;;;10.60;;
438;SDS011;206;48.782;9.252;2023-03-16T04:14:57;16.57;;;13.17;;
438;SDS011;206;48.782;9.252;2023-03-16T04:17:23;13.57;;;11.80;;
438;SDS011;206;48.782;9.252;2023-03-16T04:19:48;15.30;;;12.00;;
438;SDS011;206;48.782;9.252;2023-03-16T04:22:14;15.57;;;12.47;;
438;SDS011;206;48.782;9.252;2023-03-16T04:24:40;17.77;;;13.53;;
438;SDS011;206;48.782;9.252;2023-03-16T04:27:07;17.10;;;11.87;;
438;SDS011;206;48.782;9.252;2023-03-16T04:29:33;13.90;;;11.23;;
438;SDS011;206;48.782;9.252;2023-03-16T04:31:59;17.30;;;13.17;;
438;SDS011;206;48.782;9.252;2023-03-16T04:34:25;14.27;;;11.23;;
438;SDS011;206;48.782;9.252;2023-03-16T04:36:51;13.60;;;12.00;;
438;SDS011;206;48.782;9.252;2023-03-16T04:39:17;14.77;;;12.80;;
438;SDS011;206;48.782;9.252;2023-03-16T04:41:44;16.43;;;12.67;;
438;SDS011;206;48.782;9.252;2023-03-16T04:44:09;17.90;;;14.40;;
438;SDS011;206;48.782;9.252;2023-03-16T04:46:35;18.87;;;13.63;;
438;SDS011;206;48.782;9.252;2023-03-16T04:49:01;17.17;;;13.00;;
438;SDS011;206;48.782;9.252;2023-03-16T04:51:27;16.27;;;13.60;;
438;SDS011;206;48.782;9.252;2023-03-16T04:53:53;16.83;;;13.57;;
438;SDS011;206;48.782;9.252;2023-03-16T04:56:18;21.63;;;15.47;;
438;SDS011;206;48.782;9.252;2023-03-16T04:58:48;17.80;;;14.23;;
438;SDS011;206;48.782;9.252;2023-03-16T05:01:15;19.70;;;13.23;;
438;SDS011;206;48.782;9.252;2023-03-16T05:03:42;17.60;;;13.67;;
438;SDS011;206;48.782;9.252;2023-03-16T05:06:08;21.20;;;14.40;;
438;SDS011;206;48.782;9.252;2023-03-16T05:08:35;18.50;;;14.03;;
438;SDS011;206;48.782;9.252;2023-03-16T05:11:01;16.40;;;14.10;;
438;SDS011;206;48.782;9.252;2023-03-16T05:13:27;17.60;;;12.67;;
438;SDS011;206;48.782;9.252;2023-03-16T05:15:52;18.83;;;13.17;;
438;SDS011;206;48.782;9.252;2023-03-16T05:18:19;19.10;;;12.77;;
438;SDS011;206;48.782;9.252;2023-03-16T05:20:47;24.30;;;13.00;;
438;SDS011;206;48.782;9.252;2023-03-16T05:23:14;18.57;;;14.23;;
438;SDS011;206;48.782;9.252;2023-03-16T05:25:40;16.43;;;12.83;;
438;SDS011;206;48.782;9.252;2023-03-16T05:28:06;18.63;;;14.80;;
438;SDS011;206;48.782;9.252;2023-03-16T05:30:32;19.70;;;13.70;;
438;SDS011;206;48.782;9.252;2023-03-16T05:32:58;19.90;;;14.10;;
438;SDS011;206;48.782;9.252;2023-03-16T05:35:24;21.70;;;14.33;;
438;SDS011;206;48.782;9.252;2023-03-16T05:37:49;14.87;;;12.47;;
438;SDS011;206;48.782;9.252;2023-03-16T05:40:15;17.30;;;14.47;;
438;SDS011;206;48.782;9.252;2023-03-16T05:42:45;18.20;;;13.97;;
438;SDS011;206;48.782;9.252;2023-03-16T05:45:12;14.20;;;11.70;;
438;SDS011;206;48.782;9.252;2023-03-16T05:47:39;21.50;;;13.17;;
438;SDS011;206;48.782;9.252;2023-03-16T05:50:06;17.70;;;12.93;;
438;SDS011;206;48.782;9.252;2023-03-16T05:52:35;16.33;;;12.47;;
438;SDS011;206;48.782;9.252;2023-03-16T05:55:02;15.63;;;12.40;;
438;SDS011;206;48.782;9.252;2023-03-16T05:57:29;18.33;;;14.20;;
438;SDS011;206;48.782;9.252;2023-03-16T05:59:55;22.30;;;13.97;;
438;SDS011;206;48.782;9.252;2023-03-16T06:02:21;19.37;;;14.47;;
438;SDS011;206;48.782;9.252;2023-03-16T06:04:46;20.97;;;13.30;;
438;SDS011;206;48.782;9.252;2023-03-16T06:07:12;20.77;;;14.80;;
438;SDS011;206;48.782;9.252;2023-03-16T06:09:37;20.90;;;16.30;;
438;SDS011;206;48.782;9.252;2023-03-16T06:12:03;21.35;;;15.98;;
438;SDS011;206;48.782;9.252;2023-03-16T06:14:28;20.60;;;15.87;;
438;SDS011;206;48.782;9.252;2023-03-16T06:16:54;23.60;;;15.53;;
438;SDS011;206;48.782;9.252;2023-03-16T06:19:20;18.57;;;13.60;;
438;SDS011;206;48.782;9.252;2023-03-16T06:21:46;22.17;;;16.53;;
438;SDS011;206;48.782;9.252;2023-03-16T06:24:11;20.87;;;16.40;;
438;SDS011;206;48.782;9.252;2023-03-16T06:26:37;20.20;;;15.97;;
438;SDS011;206;48.782;9.252;2023-03-16T06:29:03;22.63;;;16.90;;
438;SDS011;206;48.782;9.252;2023-03-16T06:31:29;19.77;;;15.87;;
438;SDS011;206;48.782;9.252;2023-03-16T06:33:55;22.77;;;15.23;;
438;SDS011;206;48.782;9.252;2023-03-16T06:36:20;20.93;;;16.87;;
438;SDS011;206;48.782;9.252;2023-03-16T06:38:46;21.17;;;15.30;;
438;SDS011;206;48.782;9.252;2023-03-16T06:41:12;20.57;;;14.43;;
438;SDS011;206;48.782;9.252;2023-03-16T06:43:38;20.00;;;14.37;;
438;SDS011;206;48.782;9.252;2023-03-16T06:46:03;23.10;;;16.77;;
438;SDS011;206;48.782;9.252;2023-03-16T06:48:29;19.67;;;14.37;;
438;SDS011;206;48.782;9.252;2023-03-16T06:50:55;20.07;;;14.40;;
438;SDS011;206;48.782;9.252;2023-03-16T06:53:20;26.73;;;13.03;;
438;SDS011;206;48.782;9.252;2023-03-16T06:55:46;16.50;;;13.10;;
438;SDS011;206;48.782;9.252;2023-03-16T06:58:12;17.00;;;13.47;;
438;SDS011;206;48.782;9.252;2023-03-16T07:00:38;16.20;;;11.87;;
438;SDS011;206;48.782;9.252;2023-03-16T07:03:04;16.30;;;12.40;;
438;SDS011;206;48.782;9.252;2023-03-16T07:05:29;13.37;;;10.67;;
438;SDS011;206;48.782;9.252;2023-03-16T07:07:55;17.93;;;12.73;;
438;SDS011;206;48.782;9.252;2023-03-16T07:10:21;15.40;;;11.73;;
438;SDS011;206;48.782;9.252;2023-03-16T07:12:47;15.47;;;12.23;;
438;SDS011;206;48.782;9.252;2023-03-16T07:15:14;18.53;;;13.00;;
438;SDS011;206;48.782;9.252;2023-03-16T07:17:40;16.67;;;12.70;;
438;SDS011;206;48.782;9.252;2023-03-16T07:20:06;15.43;;;11.73;;
438;SDS011;206;48.782;9.252;2023-03-16T07:22:34;13.20;;;11.63;;
438;SDS011;206;48.782;9.252;2023-03-16T07:25:00;14.87;;;12.50;;
438;SDS011;206;48.782;9.252;2023-03-16T07:27:26;15.30;;;12.33;;
438;SDS011;206;48.782;9.252;2023-03-16T07:29:53;15.20;;;11.53;;
438;SDS011;206;48.782;9.252;2023-03-16T07:32:19;17.83;;;13.53;;
438;SDS011;206;48.782;9.252;2023-03-16T07:34:45;16.70;;;12.97;;
438;SDS011;206;48.782;9.252;2023-03-16T07:37:11;13.70;;;10.50;;
438;SDS011;206;48.782;9.252;2023-03-16T07:39:37;16.93;;;13.77;;
438;SDS011;206;48.782;9.252;2023-03-16T07:42:02;18.23;;;13.50;;
438;SDS011;206;48.782;9.252;2023-03-16T07:44:28;14.90;;;11.97;;
438;SDS011;206;48.782;9.252;2023-03-16T07:46:55;17.37;;;12.70;;
438;SDS011;206;48.782;9.252;2023-03-16T07:49:20;15.17;;;11.87;;
438;SDS011;206;48.782;9.252;2023-03-16T07:51:46;13.53;;;11.17;;
438;SDS011;206;48.782;9.252;2023-03-16T07:54:13;14.23;;;10.97;;
438;SDS011;206;48.782;9.252;2023-03-16T07:56:38;14.83;;;12.10;;
438;SDS011;206;48.782;9.252;2023-03-16T07:59:04;15.27;;;12.23;;
438;SDS011;206;48.782;9.252;2023-03-16T08:01:30;19.60;;;12.03;;
438;SDS011;206;48.782;9.252;2023-03-16T08:03:56;15.97;;;12.20;;
438;SDS011;206;48.782;9.252;2023-03-16T08:06:21;13.73;;;10.20;;
438;SDS011;206;48.782;9.252;2023-03-16T08:08:49;14.17;;;12.43;;
438;SDS011;206;48.782;9.252;2023-03-16T08:11:15;16.00;;;11.13;;
438;SDS011;206;48.782;9.252;2023-03-16T08:13:47;11.00;;;9.90;;
438;SDS011;206;48.782;9.252;2023-03-16T08:16:21;14.30;;;11.80;;
438;SDS011;206;48.782;9.252;2023-03-16T08:18:47;12.53;;;9.23;;
438;SDS011;206;48.782;9.252;2023-03-16T08:21:14;9.97;;;8.70;;
438;SDS011;206;48.782;9.252;2023-03-16T08:23:44;12.13;;;9.80;;
438;SDS011;206;48.782;9.252;2023-03-16T08:26:16;8.00;;;6.90;;
438;SDS011;206;48.782;9.252;2023-03-16T08:28:44;11.20;;;7.93;;
438;SDS011;206;48.782;9.252;2023-03-16T08:31:11;8.63;;;7.33;;
438;SDS011;206;48.782;9.252;2023-03-16T08:33:38;10.10;;;8.40;;
438;SDS011;206;48.782;9.252;2023-03-16T08:36:08;9.20;;;7.53;;
438;SDS011;206;48.782;9.252;2023-03-16T08:38:36;7.73;;;6.77;;
438;SDS011;206;48.782;9.252;2023-03-16T08:41:03;8.83;;;8.27;;
438;SDS011;206;48.782;9.252;2023-03-16T08:43:29;11.87;;;9.00;;
438;SDS011;206;48.782;9.252;2023-03-16T08:45:56;11.70;;;9.10;;
438;SDS011;206;48.782;9.252;2023-03-16T08:48:23;11.13;;;8.23;;
438;SDS011;206;48.782;9.252;2023-03-16T08:50:49;9.93;;;7.97;;
438;SDS011;206;48.782;9.252;2023-03-16T08:53:15;13.43;;;8.00;;
438;SDS011;206;48.782;9.252;2023-03-16T08:55:42;8.27;;;7.87;;
438;SDS011;206;48.782;9.252;2023-03-16T08:58:09;8.73;;;7.57;;
438;SDS011;206;48.782;9.252;2023-03-16T09:00:36;10.90;;;7.10;;
438;SDS011;206;48.782;9.252;2023-03-16T09:03:02;6.70;;;6.03;;
438;SDS011;206;48.782;9.252;2023-03-16T09:05:28;12.97;;;7.00;;
438;SDS011;206;48.782;9.252;2023-03-16T09:07:55;8.53;;;6.33;;
438;SDS011;206;48.782;9.252;2023-03-16T09:10:21;8.37;;;6.63;;
438;SDS011;206;48.782;9.252;2023-03-16T09:12:50;11.60;;;6.27;;
438;SDS011;206;48.782;9.252;2023-03-16T09:15:17;9.80;;;6.80;;
438;SDS011;206;48.782;9.252;2023-03-16T09:17:44;9.90;;;6.87;;
438;SDS011;206;48.782;9.252;2023-03-16T09:20:12;11.13;;;6.63;;
438;SDS011;206;48.782;9.252;2023-03-16T09:22:39;10.70;;;7.00;;
438;SDS011;206;48.782;9.252;2023-03-16T09:25:05;6.50;;;6.10;;
438;SDS011;206;48.782;9.252;2023-03-16T09:27:32;7.67;;;7.30;;
438;SDS011;206;48.782;9.252;2023-03-16T09:29:59;9.43;;;7.07;;
438;SDS011;206;48.782;9.252;2023-03-16T09:32:26;7.43;;;6.93;;
438;SDS011;206;48.782;9.252;2023-03-16T09:34:52;12.00;;;6.27;;
438;SDS011;206;48.782;9.252;2023-03-16T09:37:18;10.80;;;8.00;;
438;SDS011;206;48.782;9.252;2023-03-16T09:39:45;12.73;;;9.73;;
438;SDS011;206;48.782;9.252;2023-03-16T09:47:48;7.53;;;6.90;;
438;SDS011;206;48.782;9.252;2023-03-16T09:50:19;11.37;;;5.53;;
438;SDS011;206;48.782;9.252;2023-03-16T09:55:36;7.17;;;6.73;;
438;SDS011;206;48.782;9.252;2023-03-16T09:58:04;7.77;;;6.13;;
438;SDS011;206;48.782;9.252;2023-03-16T10:00:37;8.70;;;6.47;;
438;SDS011;206;48.782;9.252;2023-03-16T10:06:04;5.87;;;5.53;;
438;SDS011;206;48.782;9.252;2023-03-16T10:13:48;5.83;;;5.30;;
438;SDS011;206;48.782;9.252;2023-03-16T10:16:26;7.53;;;5.20;;
438;SDS011;206;48.782;9.252;2023-03-16T10:19:02;7.17;;;5.60;;
438;SDS011;206;48.782;9.252;2023-03-16T10:21:44;7.60;;;5.20;;
438;SDS011;206;48.782;9.252;2023-03-16T10:27:17;5.47;;;4.60;;
438;SDS011;206;48.782;9.252;2023-03-16T10:29:46;5.40;;;4.67;;
438;SDS011;206;48.782;9.252;2023-03-16T10:32:16;5.43;;;4.50;;
438;SDS011;206;48.782;9.252;2023-03-16T10:34:45;6.37;;;4.63;;
438;SDS011;206;48.782;9.252;2023-03-16T10:37:22;7.50;;;4.47;;
438;SDS011;206;48.782;9.252;2023-03-16T10:39:50;5.03;;;3.47;;
438;SDS011;206;48.782;9.252;2023-03-16T10:42:18;5.70;;;4.27;;
438;SDS011;206;48.782;9.252;2023-03-16T10:44:45;5.80;;;4.17;;
438;SDS011;206;48.782;9.252;2023-03-16T10:47:15;7.23;;;4.73;;
438;SDS011;206;48.782;9.252;2023-03-16T10:49:43;4.70;;;4.10;;
438;SDS011;206;48.782;9.252;2023-03-16T10:52:15;6.97;;;4.03;;
438;SDS011;206;48.782;9.252;2023-03-16T10:57:54;4.77;;;4.00;;
438;SDS011;206;48.782;9.252;2023-03-16T11:00:27;8.30;;;4.10;;
438;SDS011;206;48.782;9.252;2023-03-16T11:02:58;7.57;;;4.40;;
438;SDS011;206;48.782;9.252;2023-03-16T11:05:32;4.47;;;3.17;;
438;SDS011;206;48.782;9.252;2023-03-16T11:08:00;6.17;;;3.73;;
438;SDS011;206;48.782;9.252;2023-03-16T11:10:32;4.60;;;3.70;;
438;SDS011;206;48.782;9.252;2023-03-16T11:13:00;5.10;;;3.83;;
438;SDS011;206;48.782;9.252;2023-03-16T11:15:35;7.20;;;3.83;;
438;SDS011;206;48.782;9.252;2023-03-16T11:18:37;4.27;;;3.70;;
438;SDS011;206;48.782;9.252;2023-03-16T11:21:11;6.43;;;3.40;;
438;SDS011;206;48.782;9.252;2023-03-16T11:23:57;5.50;;;3.80;;
438;SDS011;206;48.782;9.252;2023-03-16T11:26:30;2.90;;;2.70;;
438;SDS011;206;48.782;9.252;2023-03-16T11:29:00;4.97;;;3.73;;
438;SDS011;206;48.782;9.252;2023-03-16T11:31:41;5.40;;;3.20;;
438;SDS011;206;48.782;9.252;2023-03-16T11:34:15;5.80;;;3.20;;
438;SDS011;206;48.782;9.252;2023-03-16T11:39:38;3.50;;;2.90;;
438;SDS011;206;48.782;9.252;2023-03-16T11:47:52;5.80;;;3.57;;
438;SDS011;206;48.782;9.252;2023-03-16T11:53:11;3.37;;;2.60;;
438;SDS011;206;48.782;9.252;2023-03-16T12:09:36;4.57;;;2.70;;
438;SDS011;206;48.782;9.252;2023-03-16T12:12:33;4.73;;;3.10;;
438;SDS011;206;48.782;9.252;2023-03-16T12:15:18;3.80;;;2.97;;
438;SDS011;206;48.782;9.252;2023-03-16T12:17:46;3.90;;;3.07;;
438;SDS011;206;48.782;9.252;2023-03-16T12:20:16;6.37;;;3.00;;
438;SDS011;206;48.782;9.252;2023-03-16T12:22:51;3.77;;;3.00;;
438;SDS011;206;48.782;9.252;2023-03-16T12:25:30;4.93;;;3.50;;
438;SDS011;206;48.782;9.252;2023-03-16T12:27:57;6.50;;;3.00;;
438;SDS011;206;48.782;9.252;2023-03-16T12:41:39;3.10;;;2.50;;
438;SDS011;206;48.782;9.252;2023-03-16T12:46:53;3.50;;;2.93;;
438;SDS011;206;48.782;9.252;2023-03-16T12:49:31;7.07;;;3.37;;
438;SDS011;206;48.782;9.252;2023-03-16T12:52:01;5.30;;;3.60;;
438;SDS011;206;48.782;9.252;2023-03-16T12:54:29;5.90;;;3.30;;
438;SDS011;206;48.782;9.252;2023-03-16T12:59:37;6.47;;;3.50;;
438;SDS011;206;48.782;9.252;2023-03-16T13:02:17;5.17;;;3.07;;
438;SDS011;206;48.782;9.252;2023-03-16T13:04:53;4.30;;;3.53;;
438;SDS011;206;48.782;9.252;2023-03-16T13:07:32;4.33;;;2.87;;
438;SDS011;206;48.782;9.252;2023-03-16T13:12:36;3.60;;;2.93;;
438;SDS011;206;48.782;9.252;2023-03-16T13:17:48;4.83;;;3.23;;
438;SDS011;206;48.782;9.252;2023-03-16T13:20:26;3.77;;;2.83;;
438;SDS011;206;48.782;9.252;2023-03-16T13:23:18;4.30;;;2.63;;
438;SDS011;206;48.782;9.252;2023-03-16T13:26:35;3.67;;;2.27;;
438;SDS011;206;48.782;9.252;2023-03-16T13:28:50;3.63;;;2.57;;
438;SDS011;206;48.782;9.252;2023-03-16T13:31:20;5.30;;;3.33;;
438;SDS011;206;48.782;9.252;2023-03-16T13:33:54;3.40;;;2.80;;
438;SDS011;206;48.782;9.252;2023-03-16T13:36:24;3.90;;;2.83;;
438;SDS011;206;48.782;9.252;2023-03-16T13:39:01;4.50;;;3.13;;
438;SDS011;206;48.782;9.252;2023-03-16T13:41:29;4.53;;;2.90;;
438;SDS011;206;48.782;9.252;2023-03-16T13:43:54;5.30;;;2.90;;
438;SDS011;206;48.782;9.252;2023-03-16T13:46:21;3.60;;;2.70;;
438;SDS011;206;48.782;9.252;2023-03-16T13:48:53;3.70;;;2.60;;
438;SDS011;206;48.782;9.252;2023-03-16T13:51:21;4.67;;;3.17;;
438;SDS011;206;48.782;9.252;2023-03-16T13:53:48;3.37;;;2.67;;
438;SDS011;206;48.782;9.252;2023-03-16T13:56:15;3.63;;;2.33;;
438;SDS011;206;48.782;9.252;2023-03-16T13:58:51;4.07;;;2.88;;
438;SDS011;206;48.782;9.252;2023-03-16T14:01:23;4.60;;;3.03;;
438;SDS011;206;48.782;9.252;2023-03-16T14:03:50;5.20;;;3.20;;
438;SDS011;206;48.782;9.252;2023-03-16T14:06:26;4.43;;;2.53;;
438;SDS011;206;48.782;9.252;2023-03-16T14:08:57;3.83;;;2.70;;
438;SDS011;206;48.782;9.252;2023-03-16T14:11:25;3.63;;;2.73;;
438;SDS011;206;48.782;9.252;2023-03-16T14:13:53;4.13;;;3.07;;
438;SDS011;206;48.782;9.252;2023-03-16T14:16:21;6.53;;;3.00;;
438;SDS011;206;48.782;9.252;2023-03-16T14:19:02;5.10;;;2.80;;
438;SDS011;206;48.782;9.252;2023-03-16T14:21:32;5.67;;;2.90;;
438;SDS011;206;48.782;9.252;2023-03-16T14:26:39;6.10;;;2.70;;
438;SDS011;206;48.782;9.252;2023-03-16T14:31:50;4.07;;;2.80;;
438;SDS011;206;48.782;9.252;2023-03-16T14:34:36;5.03;;;3.17;;
438;SDS011;206;48.782;9.252;2023-03-16T14:39:35;3.37;;;2.73;;
438;SDS011;206;48.782;9.252;2023-03-16T14:42:04;4.70;;;3.47;;
438;SDS011;206;48.782;9.252;2023-03-16T14:44:31;4.80;;;3.60;;
438;SDS011;206;48.782;9.252;2023-03-16T14:47:00;4.93;;;4.20;;
438;SDS011;206;48.782;9.252;2023-03-16T14:49:28;5.83;;;3.40;;
438;SDS011;206;48.782;9.252;2023-03-16T14:51:58;5.00;;;3.63;;
438;SDS011;206;48.782;9.252;2023-03-16T14:54:26;7.07;;;4.30;;
438;SDS011;206;48.782;9.252;2023-03-16T14:56:54;4.60;;;3.50;;
438;SDS011;206;48.782;9.252;2023-03-16T14:59:29;6.80;;;3.50;;
438;SDS011;206;48.782;9.252;2023-03-16T15:01:58;5.83;;;4.43;;
438;SDS011;206;48.782;9.252;2023-03-16T15:04:31;4.90;;;3.50;;
438;SDS011;206;48.782;9.252;2023-03-16T15:06:58;3.90;;;3.23;;
438;SDS011;206;48.782;9.252;2023-03-16T15:11:54;3.73;;;2.80;;
438;SDS011;206;48.782;9.252;2023-03-16T15:14:21;4.40;;;3.43;;
438;SDS011;206;48.782;9.252;2023-03-16T15:17:06;4.03;;;3.43;;
438;SDS011;206;48.782;9.252;2023-03-16T15:19:33;3.50;;;2.73;;
438;SDS011;206;48.782;9.252;2023-03-16T15:21:59;3.53;;;3.33;;
438;SDS011;206;48.782;9.252;2023-03-16T15:24:26;5.77;;;3.03;;
438;SDS011;206;48.782;9.252;2023-03-16T15:26:53;3.80;;;3.20;;
438;SDS011;206;48.782;9.252;2023-03-16T15:29:18;10.00;;;3.50;;
438;SDS011;206;48.782;9.252;2023-03-16T15:31:44;4.00;;;2.63;;
438;SDS011;206;48.782;9.252;2023-03-16T15:34:10;8.67;;;3.20;;
438;SDS011;206;48.782;9.252;2023-03-16T15:36:36;4.90;;;3.27;;
438;SDS011;206;48.782;9.252;2023-03-16T15:39:01;7.93;;;2.90;;
438;SDS011;206;48.782;9.252;2023-03-16T15:41:28;6.93;;;3.10;;
438;SDS011;206;48.782;9.252;2023-03-16T15:43:54;8.00;;;3.10;;
438;SDS011;206;48.782;9.252;2023-03-16T15:46:24;7.47;;;3.13;;
438;SDS011;206;48.782;9.252;2023-03-16T15:48:51;4.20;;;2.90;;
438;SDS011;206;48.782;9.252;2023-03-16T15:51:20;3.93;;;2.80;;
438;SDS011;206;48.782;9.252;2023-03-16T15:54:00;6.27;;;2.77;;
438;SDS011;206;48.782;9.252;2023-03-16T15:56:28;6.33;;;3.27;;
438;SDS011;206;48.782;9.252;2023-03-16T15:58:59;10.63;;;3.60;;
438;SDS011;206;48.782;9.252;2023-03-16T16:01:29;4.20;;;3.10;;
438;SDS011;206;48.782;9.252;2023-03-16T16:03:58;3.20;;;3.00;;
438;SDS011;206;48.782;9.252;2023-03-16T16:06:24;3.37;;;3.17;;
438;SDS011;206;48.782;9.252;2023-03-16T16:08:52;3.30;;;2.80;;
438;SDS011;206;48.782;9.252;2023-03-16T16:11:20;7.00;;;4.13;;
438;SDS011;206;48.782;9.252;2023-03-16T16:13:48;3.97;;;2.90;;
438;SDS011;206;48.782;9.252;2023-03-16T16:16:16;8.20;;;4.30;;
438;SDS011;206;48.782;9.252;2023-03-16T16:18:43;2.93;;;2.73;;
438;SDS011;206;48.782;9.252;2023-03-16T16:23:41;3.43;;;3.10;;
438;SDS011;206;48.782;9.252;2023-03-16T16:26:12;3.93;;;2.83;;
438;SDS011;206;48.782;9.252;2023-03-16T16:28:41;4.90;;;2.53;;
438;SDS011;206;48.782;9.252;2023-03-16T16:31:10;6.03;;;3.37;;
438;SDS011;206;48.782;9.252;2023-03-16T16:33:37;5.17;;;3.60;;
438;SDS011;206;48.782;9.252;2023-03-16T16:36:03;3.60;;;2.77;;
438;SDS011;206;48.782;9.252;2023-03-16T16:38:41;4.53;;;3.43;;
438;SDS011;206;48.782;9.252;2023-03-16T16:41:08;3.00;;;2.80;;
438;SDS011;206;48.782;9.252;2023-03-16T16:43:46;2.90;;;2.50;;
438;SDS011;206;48.782;9.252;2023-03-16T16:46:13;2.77;;;2.30;;
438;SDS011;206;48.782;9.252;2023-03-16T16:48:43;2.80;;;2.10;;
438;SDS011;206;48.782;9.252;2023-03-16T16:51:23;2.90;;;2.33;;
438;SDS011;206;48.782;9.252;2023-03-16T16:53:51;3.10;;;2.33;;
438;SDS011;206;48.782;9.252;2023-03-16T16:56:36;2.90;;;2.70;;
438;SDS011;206;48.782;9.252;2023-03-16T16:59:10;3.10;;;2.70;;
438;SDS011;206;48.782;9.252;2023-03-16T17:01:41;3.80;;;2.90;;
438;SDS011;206;48.782;9.252;2023-03-16T17:04:12;5.87;;;2.40;;
438;SDS011;206;48.782;9.252;2023-03-16T17:06:43;3.80;;;2.47;;
438;SDS011;206;48.782;9.252;2023-03-16T17:09:10;3.23;;;2.40;;